sensor_id;sensor_type;location;lat;lon;timestamp;pressure;altitude;pressure_sealevel;temperature;humidity
72465;BME280;60471;52.150;4.508;2022-07-19T00:02:08;101610.88;;;26.41;41.45
72465;BME280;60471;52.150;4.508;2022-07-19T00:04:34;101611.88;;;26.40;41.89
72465;BME280;60471;52.150;4.508;2022-07-19T00:07:01;101605.13;;;26.44;41.36
72465;BME280;60471;52.150;4.508;2022-07-19T00:09:28;101598.34;;;26.22;42.32
72465;BME280;60471;52.150;4.508;2022-07-19T00:11:55;101603.28;;;26.27;42.08
72465;BME280;60471;52.150;4.508;2022-07-19T00:14:21;101595.69;;;26.30;41.65
72465;BME280;60471;52.150;4.508;2022-07-19T00:16:48;101594.84;;;26.30;41.38
72465;BME280;60471;52.150;4.508;2022-07-19T00:19:15;101603.50;;;26.34;41.90
72465;BME280;60471;52.150;4.508;2022-07-19T00:21:41;101599.34;;;26.21;42.34
72465;BME280;60471;52.150;4.508;2022-07-19T00:24:09;101593.50;;;26.08;43.12
72465;BME280;60471;52.150;4.508;2022-07-19T00:26:35;101589.25;;;26.06;42.77
72465;BME280;60471;52.150;4.508;2022-07-19T00:29:01;101585.13;;;26.19;42.35
72465;BME280;60471;52.150;4.508;2022-07-19T00:31:28;101591.06;;;26.23;41.98
72465;BME280;60471;52.150;4.508;2022-07-19T00:33:55;101592.63;;;26.08;42.79
72465;BME280;60471;52.150;4.508;2022-07-19T00:36:21;101593.47;;;25.90;43.70
72465;BME280;60471;52.150;4.508;2022-07-19T00:38:47;101587.31;;;25.80;44.09
72465;BME280;60471;52.150;4.508;2022-07-19T00:41:14;101591.34;;;25.76;44.42
72465;BME280;60471;52.150;4.508;2022-07-19T00:43:41;101592.63;;;25.72;44.28
72465;BME280;60471;52.150;4.508;2022-07-19T00:46:15;101588.50;;;25.68;45.19
72465;BME280;60471;52.150;4.508;2022-07-19T00:48:42;101593.22;;;25.66;45.32
72465;BME280;60471;52.150;4.508;2022-07-19T00:51:10;101591.28;;;25.58;45.22
72465;BME280;60471;52.150;4.508;2022-07-19T00:53:39;101586.78;;;25.49;45.77
72465;BME280;60471;52.150;4.508;2022-07-19T00:56:07;101590.75;;;25.55;45.76
72465;BME280;60471;52.150;4.508;2022-07-19T00:58:37;101589.19;;;25.52;46.05
72465;BME280;60471;52.150;4.508;2022-07-19T01:01:06;101597.06;;;25.46;46.27
72465;BME280;60471;52.150;4.508;2022-07-19T01:03:36;101586.66;;;25.68;45.32
72465;BME280;60471;52.150;4.508;2022-07-19T01:06:04;101584.59;;;25.98;44.76
72465;BME280;60471;52.150;4.508;2022-07-19T01:08:31;101584.75;;;25.96;44.09
72465;BME280;60471;52.150;4.508;2022-07-19T01:10:57;101587.16;;;25.99;44.09
72465;BME280;60471;52.150;4.508;2022-07-19T01:13:24;101580.84;;;25.73;45.04
72465;BME280;60471;52.150;4.508;2022-07-19T01:15:51;101586.13;;;25.65;45.29
72465;BME280;60471;52.150;4.508;2022-07-19T01:18:17;101577.59;;;25.87;44.09
72465;BME280;60471;52.150;4.508;2022-07-19T01:20:43;101576.16;;;25.83;44.07
72465;BME280;60471;52.150;4.508;2022-07-19T01:23:10;101578.75;;;25.85;44.02
72465;BME280;60471;52.150;4.508;2022-07-19T01:25:37;101575.88;;;25.86;44.18
72465;BME280;60471;52.150;4.508;2022-07-19T01:28:05;101570.31;;;25.88;44.28
72465;BME280;60471;52.150;4.508;2022-07-19T01:30:33;101571.56;;;25.76;44.25
72465;BME280;60471;52.150;4.508;2022-07-19T01:33:00;101571.72;;;25.74;44.24
72465;BME280;60471;52.150;4.508;2022-07-19T01:35:27;101568.84;;;25.76;43.67
72465;BME280;60471;52.150;4.508;2022-07-19T01:37:55;101562.88;;;25.72;44.15
72465;BME280;60471;52.150;4.508;2022-07-19T01:40:22;101568.16;;;25.74;43.95
72465;BME280;60471;52.150;4.508;2022-07-19T01:42:50;101563.44;;;25.76;43.26
72465;BME280;60471;52.150;4.508;2022-07-19T01:45:17;101568.72;;;25.67;43.74
72465;BME280;60471;52.150;4.508;2022-07-19T01:47:45;101572.72;;;25.73;43.23
72465;BME280;60471;52.150;4.508;2022-07-19T01:50:14;101562.88;;;25.72;43.03
72465;BME280;60471;52.150;4.508;2022-07-19T01:52:41;101567.16;;;25.75;43.13
72465;BME280;60471;52.150;4.508;2022-07-19T01:55:08;101570.31;;;25.70;43.34
72465;BME280;60471;52.150;4.508;2022-07-19T01:57:34;101565.75;;;25.70;43.07
72465;BME280;60471;52.150;4.508;2022-07-19T02:00:01;101563.59;;;25.74;42.70
72465;BME280;60471;52.150;4.508;2022-07-19T02:02:28;101552.94;;;25.73;42.38
72465;BME280;60471;52.150;4.508;2022-07-19T02:04:54;101564.63;;;25.73;42.18
72465;BME280;60471;52.150;4.508;2022-07-19T02:07:20;101555.78;;;25.71;42.37
72465;BME280;60471;52.150;4.508;2022-07-19T02:09:46;101549.72;;;25.59;42.64
72465;BME280;60471;52.150;4.508;2022-07-19T02:12:13;101551.50;;;25.68;42.70
72465;BME280;60471;52.150;4.508;2022-07-19T02:14:39;101552.50;;;25.67;42.68
72465;BME280;60471;52.150;4.508;2022-07-19T02:17:05;101547.09;;;25.67;42.56
72465;BME280;60471;52.150;4.508;2022-07-19T02:19:31;101548.81;;;25.68;41.98
72465;BME280;60471;52.150;4.508;2022-07-19T02:21:57;101550.97;;;25.65;42.05
72465;BME280;60471;52.150;4.508;2022-07-19T02:24:24;101553.13;;;25.61;42.11
72465;BME280;60471;52.150;4.508;2022-07-19T02:26:50;101542.25;;;25.53;42.26
72465;BME280;60471;52.150;4.508;2022-07-19T02:29:16;101546.09;;;25.51;42.69
72465;BME280;60471;52.150;4.508;2022-07-19T02:31:42;101540.00;;;25.49;42.32
72465;BME280;60471;52.150;4.508;2022-07-19T02:34:10;101543.47;;;25.59;42.23
72465;BME280;60471;52.150;4.508;2022-07-19T02:36:36;101548.19;;;25.57;42.15
72465;BME280;60471;52.150;4.508;2022-07-19T02:39:02;101550.88;;;25.57;42.59
72465;BME280;60471;52.150;4.508;2022-07-19T02:41:28;101544.78;;;25.55;42.61
72465;BME280;60471;52.150;4.508;2022-07-19T02:43:55;101542.19;;;25.63;42.71
72465;BME280;60471;52.150;4.508;2022-07-19T02:46:21;101546.56;;;25.46;42.73
72465;BME280;60471;52.150;4.508;2022-07-19T02:48:47;101540.25;;;25.55;42.84
72465;BME280;60471;52.150;4.508;2022-07-19T02:51:13;101540.75;;;25.59;42.52
72465;BME280;60471;52.150;4.508;2022-07-19T02:53:39;101538.53;;;25.54;42.56
72465;BME280;60471;52.150;4.508;2022-07-19T02:56:06;101532.50;;;25.60;42.67
72465;BME280;60471;52.150;4.508;2022-07-19T02:58:32;101531.03;;;25.48;42.79
72465;BME280;60471;52.150;4.508;2022-07-19T03:00:58;101535.75;;;25.46;43.32
72465;BME280;60471;52.150;4.508;2022-07-19T03:03:24;101537.34;;;25.39;43.37
72465;BME280;60471;52.150;4.508;2022-07-19T03:06:10;101540.78;;;25.41;43.19
72465;BME280;60471;52.150;4.508;2022-07-19T03:08:37;101539.13;;;25.30;43.73
72465;BME280;60471;52.150;4.508;2022-07-19T03:11:04;101536.97;;;25.34;43.44
72465;BME280;60471;52.150;4.508;2022-07-19T03:13:30;101535.81;;;25.19;43.96
72465;BME280;60471;52.150;4.508;2022-07-19T03:15:57;101535.59;;;25.30;43.66
72465;BME280;60471;52.150;4.508;2022-07-19T03:18:23;101542.06;;;25.37;43.53
72465;BME280;60471;52.150;4.508;2022-07-19T03:20:49;101530.88;;;25.32;44.05
72465;BME280;60471;52.150;4.508;2022-07-19T03:23:15;101528.13;;;25.14;44.61
72465;BME280;60471;52.150;4.508;2022-07-19T03:25:41;101524.91;;;25.10;44.51
72465;BME280;60471;52.150;4.508;2022-07-19T03:28:08;101517.50;;;25.12;44.54
72465;BME280;60471;52.150;4.508;2022-07-19T03:30:34;101525.50;;;25.04;45.23
72465;BME280;60471;52.150;4.508;2022-07-19T03:33:00;101531.88;;;25.03;45.27
72465;BME280;60471;52.150;4.508;2022-07-19T03:35:26;101534.84;;;25.10;45.26
72465;BME280;60471;52.150;4.508;2022-07-19T03:37:52;101525.59;;;25.12;45.05
72465;BME280;60471;52.150;4.508;2022-07-19T03:40:19;101529.63;;;24.99;45.65
72465;BME280;60471;52.150;4.508;2022-07-19T03:42:45;101530.81;;;24.86;46.00
72465;BME280;60471;52.150;4.508;2022-07-19T03:45:11;101533.06;;;24.91;46.06
72465;BME280;60471;52.150;4.508;2022-07-19T03:47:38;101530.25;;;24.83;46.49
72465;BME280;60471;52.150;4.508;2022-07-19T03:50:04;101524.66;;;24.67;46.81
72465;BME280;60471;52.150;4.508;2022-07-19T03:52:31;101532.91;;;24.65;47.06
72465;BME280;60471;52.150;4.508;2022-07-19T03:54:57;101523.81;;;24.66;47.14
72465;BME280;60471;52.150;4.508;2022-07-19T03:57:23;101531.41;;;24.80;46.42
72465;BME280;60471;52.150;4.508;2022-07-19T03:59:49;101529.41;;;24.82;46.42
72465;BME280;60471;52.150;4.508;2022-07-19T04:02:15;101531.88;;;24.76;46.51
72465;BME280;60471;52.150;4.508;2022-07-19T04:04:42;101530.16;;;24.75;46.68
72465;BME280;60471;52.150;4.508;2022-07-19T04:07:08;101530.16;;;24.75;46.71
72465;BME280;60471;52.150;4.508;2022-07-19T04:09:34;101534.00;;;24.72;46.97
72465;BME280;60471;52.150;4.508;2022-07-19T04:12:01;101522.50;;;24.70;47.06
72465;BME280;60471;52.150;4.508;2022-07-19T04:14:27;101522.50;;;24.70;46.91
72465;BME280;60471;52.150;4.508;2022-07-19T04:16:53;101520.72;;;24.89;46.44
72465;BME280;60471;52.150;4.508;2022-07-19T04:19:19;101516.41;;;24.96;45.59
72465;BME280;60471;52.150;4.508;2022-07-19T04:21:45;101524.91;;;25.01;45.25
72465;BME280;60471;52.150;4.508;2022-07-19T04:24:11;101517.81;;;25.09;45.29
72465;BME280;60471;52.150;4.508;2022-07-19T04:26:38;101520.66;;;25.08;45.21
72465;BME280;60471;52.150;4.508;2022-07-19T04:29:04;101525.22;;;25.07;45.43
72465;BME280;60471;52.150;4.508;2022-07-19T04:31:30;101523.03;;;25.11;45.34
72465;BME280;60471;52.150;4.508;2022-07-19T04:33:56;101525.81;;;24.92;45.64
72465;BME280;60471;52.150;4.508;2022-07-19T04:36:22;101521.94;;;24.94;46.01
72465;BME280;60471;52.150;4.508;2022-07-19T04:38:49;101524.22;;;25.08;45.42
72465;BME280;60471;52.150;4.508;2022-07-19T04:41:15;101531.47;;;25.08;45.36
72465;BME280;60471;52.150;4.508;2022-07-19T04:43:41;101520.66;;;25.26;44.55
72465;BME280;60471;52.150;4.508;2022-07-19T04:46:07;101529.41;;;25.20;44.62
72465;BME280;60471;52.150;4.508;2022-07-19T04:48:33;101527.75;;;25.27;44.38
72465;BME280;60471;52.150;4.508;2022-07-19T04:51:00;101522.38;;;25.27;44.59
72465;BME280;60471;52.150;4.508;2022-07-19T04:53:26;101521.50;;;25.26;44.80
72465;BME280;60471;52.150;4.508;2022-07-19T04:55:52;101520.66;;;25.26;44.84
72465;BME280;60471;52.150;4.508;2022-07-19T04:58:18;101529.34;;;25.29;44.49
72465;BME280;60471;52.150;4.508;2022-07-19T05:00:45;101527.22;;;25.23;44.88
72465;BME280;60471;52.150;4.508;2022-07-19T05:03:11;101525.13;;;25.17;45.53
72465;BME280;60471;52.150;4.508;2022-07-19T05:05:37;101530.63;;;24.98;46.14
72465;BME280;60471;52.150;4.508;2022-07-19T05:08:03;101528.81;;;25.16;44.81
72465;BME280;60471;52.150;4.508;2022-07-19T05:10:30;101528.44;;;25.11;45.47
72465;BME280;60471;52.150;4.508;2022-07-19T05:12:56;101522.53;;;25.25;45.10
72465;BME280;60471;52.150;4.508;2022-07-19T05:15:22;101516.59;;;25.39;44.64
72465;BME280;60471;52.150;4.508;2022-07-19T05:17:48;101518.44;;;25.39;44.80
72465;BME280;60471;52.150;4.508;2022-07-19T05:20:14;101522.38;;;25.27;45.85
72465;BME280;60471;52.150;4.508;2022-07-19T05:22:43;101522.88;;;25.12;46.17
72465;BME280;60471;52.150;4.508;2022-07-19T05:25:10;101514.72;;;25.22;46.02
72465;BME280;60471;52.150;4.508;2022-07-19T05:27:37;101526.97;;;25.17;46.23
72465;BME280;60471;52.150;4.508;2022-07-19T05:30:04;101524.84;;;25.20;46.39
72465;BME280;60471;52.150;4.508;2022-07-19T05:32:31;101528.56;;;25.19;46.10
72465;BME280;60471;52.150;4.508;2022-07-19T05:34:58;101523.16;;;25.19;46.38
72465;BME280;60471;52.150;4.508;2022-07-19T05:37:24;101523.00;;;25.21;46.68
72465;BME280;60471;52.150;4.508;2022-07-19T05:39:51;101526.16;;;25.34;46.16
72465;BME280;60471;52.150;4.508;2022-07-19T05:42:17;101516.81;;;25.46;45.57
72465;BME280;60471;52.150;4.508;2022-07-19T05:44:43;101517.09;;;25.70;44.92
72465;BME280;60471;52.150;4.508;2022-07-19T05:47:09;101513.59;;;25.96;43.81
72465;BME280;60471;52.150;4.508;2022-07-19T05:49:35;101513.13;;;26.00;42.86
72465;BME280;60471;52.150;4.508;2022-07-19T05:52:02;101513.59;;;25.96;43.29
72465;BME280;60471;52.150;4.508;2022-07-19T05:54:29;101505.69;;;26.02;43.08
72465;BME280;60471;52.150;4.508;2022-07-19T05:56:55;101514.50;;;26.05;42.42
72465;BME280;60471;52.150;4.508;2022-07-19T05:59:21;101507.19;;;25.97;42.49
72465;BME280;60471;52.150;4.508;2022-07-19T06:01:48;101511.41;;;25.99;42.83
72465;BME280;60471;52.150;4.508;2022-07-19T06:04:15;101511.34;;;25.91;42.97
72465;BME280;60471;52.150;4.508;2022-07-19T06:06:42;101514.53;;;25.87;43.19
72465;BME280;60471;52.150;4.508;2022-07-19T06:09:08;101509.66;;;25.90;43.43
72465;BME280;60471;52.150;4.508;2022-07-19T06:11:40;101513.75;;;25.94;44.08
72465;BME280;60471;52.150;4.508;2022-07-19T06:14:07;101517.84;;;25.98;43.65
72465;BME280;60471;52.150;4.508;2022-07-19T06:16:36;101509.16;;;26.13;43.23
72465;BME280;60471;52.150;4.508;2022-07-19T06:19:04;101509.16;;;26.13;43.42
72465;BME280;60471;52.150;4.508;2022-07-19T06:21:31;101510.81;;;26.32;42.79
72465;BME280;60471;52.150;4.508;2022-07-19T06:23:59;101511.75;;;26.40;42.79
72465;BME280;60471;52.150;4.508;2022-07-19T06:26:25;101512.31;;;26.52;42.71
72465;BME280;60471;52.150;4.508;2022-07-19T06:28:55;101524.81;;;26.53;43.02
72465;BME280;60471;52.150;4.508;2022-07-19T06:31:21;101515.00;;;26.52;42.88
72465;BME280;60471;52.150;4.508;2022-07-19T06:33:49;101518.69;;;26.77;42.25
72465;BME280;60471;52.150;4.508;2022-07-19T06:36:17;101518.69;;;26.77;42.39
72465;BME280;60471;52.150;4.508;2022-07-19T06:38:44;101516.75;;;26.95;41.33
72465;BME280;60471;52.150;4.508;2022-07-19T06:41:11;101519.94;;;26.99;41.61
72465;BME280;60471;52.150;4.508;2022-07-19T06:43:39;101517.41;;;26.97;42.13
72465;BME280;60471;52.150;4.508;2022-07-19T06:46:06;101528.88;;;26.83;42.78
72465;BME280;60471;52.150;4.508;2022-07-19T06:48:32;101522.44;;;26.84;43.10
72465;BME280;60471;52.150;4.508;2022-07-19T06:50:58;101517.88;;;26.84;43.99
72465;BME280;60471;52.150;4.508;2022-07-19T06:53:25;101513.31;;;26.85;44.03
72465;BME280;60471;52.150;4.508;2022-07-19T06:55:52;101519.66;;;27.02;43.70
72465;BME280;60471;52.150;4.508;2022-07-19T06:58:18;101504.66;;;27.15;42.80
72465;BME280;60471;52.150;4.508;2022-07-19T07:00:45;101505.34;;;27.26;42.81
72465;BME280;60471;52.150;4.508;2022-07-19T07:03:15;101508.25;;;27.49;41.27
72465;BME280;60471;52.150;4.508;2022-07-19T07:05:43;101499.97;;;27.50;42.20
72465;BME280;60471;52.150;4.508;2022-07-19T07:08:10;101502.00;;;27.64;40.43
72465;BME280;60471;52.150;4.508;2022-07-19T07:10:36;101497.97;;;27.68;39.49
72465;BME280;60471;52.150;4.508;2022-07-19T07:13:05;101495.78;;;27.72;39.64
72465;BME280;60471;52.150;4.508;2022-07-19T07:15:32;101498.28;;;27.65;40.14
72465;BME280;60471;52.150;4.508;2022-07-19T07:17:58;101497.47;;;27.81;40.91
72465;BME280;60471;52.150;4.508;2022-07-19T07:20:24;101494.75;;;27.81;40.96
72465;BME280;60471;52.150;4.508;2022-07-19T07:22:51;101487.28;;;27.83;41.09
72465;BME280;60471;52.150;4.508;2022-07-19T07:25:17;101486.09;;;27.94;40.63
72465;BME280;60471;52.150;4.508;2022-07-19T07:27:44;101478.81;;;28.02;40.64
72465;BME280;60471;52.150;4.508;2022-07-19T07:30:10;101485.75;;;28.13;39.96
72465;BME280;60471;52.150;4.508;2022-07-19T07:32:36;101487.44;;;28.06;41.04
72465;BME280;60471;52.150;4.508;2022-07-19T07:35:03;101485.56;;;28.23;40.36
72465;BME280;60471;52.150;4.508;2022-07-19T07:37:29;101479.28;;;28.22;40.08
72465;BME280;60471;52.150;4.508;2022-07-19T07:39:56;101479.44;;;28.29;40.54
72465;BME280;60471;52.150;4.508;2022-07-19T07:42:22;101481.47;;;28.27;41.07
72465;BME280;60471;52.150;4.508;2022-07-19T07:44:51;101482.47;;;28.26;40.34
72465;BME280;60471;52.150;4.508;2022-07-19T07:47:17;101479.28;;;28.30;40.13
72465;BME280;60471;52.150;4.508;2022-07-19T07:49:44;101474.47;;;28.49;39.62
72465;BME280;60471;52.150;4.508;2022-07-19T07:52:10;101470.03;;;28.56;38.95
72465;BME280;60471;52.150;4.508;2022-07-19T07:54:36;101474.50;;;28.80;37.50
72465;BME280;60471;52.150;4.508;2022-07-19T07:57:03;101469.38;;;28.85;37.08
72465;BME280;60471;52.150;4.508;2022-07-19T07:59:29;101482.59;;;28.96;36.85
72465;BME280;60471;52.150;4.508;2022-07-19T08:01:55;101476.97;;;28.98;37.13
72465;BME280;60471;52.150;4.508;2022-07-19T08:04:21;101473.97;;;29.24;37.34
72465;BME280;60471;52.150;4.508;2022-07-19T08:06:47;101475.03;;;29.14;37.84
72465;BME280;60471;52.150;4.508;2022-07-19T08:09:13;101475.31;;;29.20;36.83
72465;BME280;60471;52.150;4.508;2022-07-19T08:11:40;101469.19;;;29.26;36.65
72465;BME280;60471;52.150;4.508;2022-07-19T08:14:06;101464.13;;;29.23;36.73
72465;BME280;60471;52.150;4.508;2022-07-19T08:16:32;101460.00;;;29.27;37.01
72465;BME280;60471;52.150;4.508;2022-07-19T08:18:58;101466.94;;;29.29;36.87
72465;BME280;60471;52.150;4.508;2022-07-19T08:21:25;101462.53;;;29.28;37.42
72465;BME280;60471;52.150;4.508;2022-07-19T08:23:51;101453.66;;;29.34;37.78
72465;BME280;60471;52.150;4.508;2022-07-19T08:26:20;101455.50;;;29.42;37.95
72465;BME280;60471;52.150;4.508;2022-07-19T08:28:46;101455.22;;;29.29;37.72
72465;BME280;60471;52.150;4.508;2022-07-19T08:31:14;101451.41;;;29.38;37.53
72465;BME280;60471;52.150;4.508;2022-07-19T08:33:41;101442.41;;;29.37;37.17
72465;BME280;60471;52.150;4.508;2022-07-19T08:36:08;101453.84;;;29.33;36.30
72465;BME280;60471;52.150;4.508;2022-07-19T08:38:37;101457.75;;;29.30;35.57
72465;BME280;60471;52.150;4.508;2022-07-19T08:41:04;101461.25;;;29.39;35.75
72465;BME280;60471;52.150;4.508;2022-07-19T08:43:32;101452.38;;;29.53;36.03
72465;BME280;60471;52.150;4.508;2022-07-19T08:46:00;101453.38;;;29.52;37.03
72465;BME280;60471;52.150;4.508;2022-07-19T08:48:31;101452.59;;;29.66;36.93
72465;BME280;60471;52.150;4.508;2022-07-19T08:51:03;101452.06;;;29.48;37.32
72465;BME280;60471;52.150;4.508;2022-07-19T08:53:32;101444.22;;;29.53;37.69
72465;BME280;60471;52.150;4.508;2022-07-19T08:55:59;101446.84;;;29.61;38.34
72465;BME280;60471;52.150;4.508;2022-07-19T08:58:26;101446.22;;;29.74;38.33
72465;BME280;60471;52.150;4.508;2022-07-19T09:00:53;101441.34;;;29.84;38.05
72465;BME280;60471;52.150;4.508;2022-07-19T09:03:19;101444.91;;;30.08;37.93
72465;BME280;60471;52.150;4.508;2022-07-19T09:05:45;101444.75;;;29.86;36.42
72465;BME280;60471;52.150;4.508;2022-07-19T09:08:15;101439.00;;;29.81;36.49
72465;BME280;60471;52.150;4.508;2022-07-19T09:10:48;101444.81;;;29.78;37.41
72465;BME280;60471;52.150;4.508;2022-07-19T09:13:35;101449.97;;;29.73;37.46
72465;BME280;60471;52.150;4.508;2022-07-19T09:16:02;101444.25;;;29.83;37.58
72465;BME280;60471;52.150;4.508;2022-07-19T09:18:31;101445.59;;;30.01;37.65
72465;BME280;60471;52.150;4.508;2022-07-19T09:21:01;101448.94;;;30.12;37.32
72465;BME280;60471;52.150;4.508;2022-07-19T09:23:29;101441.81;;;30.25;36.85
72465;BME280;60471;52.150;4.508;2022-07-19T09:25:58;101436.66;;;30.30;35.42
72465;BME280;60471;52.150;4.508;2022-07-19T09:28:28;101435.63;;;30.32;36.66
72465;BME280;60471;52.150;4.508;2022-07-19T09:30:58;101427.72;;;30.22;35.00
72465;BME280;60471;52.150;4.508;2022-07-19T09:33:27;101439.84;;;30.34;34.44
72465;BME280;60471;52.150;4.508;2022-07-19T09:38:30;101432.88;;;30.61;33.37
72465;BME280;60471;52.150;4.508;2022-07-19T09:41:14;101431.53;;;30.57;33.90
72465;BME280;60471;52.150;4.508;2022-07-19T09:43:56;101430.69;;;30.71;32.92
72465;BME280;60471;52.150;4.508;2022-07-19T09:49:09;101430.34;;;30.74;33.11
72465;BME280;60471;52.150;4.508;2022-07-19T09:51:43;101427.63;;;30.74;32.99
72465;BME280;60471;52.150;4.508;2022-07-19T09:54:15;101420.88;;;30.92;32.96
72465;BME280;60471;52.150;4.508;2022-07-19T09:56:53;101411.84;;;30.91;32.86
72465;BME280;60471;52.150;4.508;2022-07-19T09:59:22;101420.97;;;30.98;33.93
72465;BME280;60471;52.150;4.508;2022-07-19T10:01:51;101412.34;;;31.16;32.94
72465;BME280;60471;52.150;4.508;2022-07-19T10:04:22;101413.34;;;31.30;31.41
72465;BME280;60471;52.150;4.508;2022-07-19T10:06:51;101406.41;;;31.55;29.81
72465;BME280;60471;52.150;4.508;2022-07-19T10:09:20;101408.19;;;31.41;29.69
72465;BME280;60471;52.150;4.508;2022-07-19T10:11:48;101407.22;;;31.49;29.66
72465;BME280;60471;52.150;4.508;2022-07-19T10:14:14;101400.44;;;31.66;30.37
72465;BME280;60471;52.150;4.508;2022-07-19T10:19:30;101386.06;;;31.79;29.47
72465;BME280;60471;52.150;4.508;2022-07-19T10:22:03;101386.34;;;31.91;29.23
72465;BME280;60471;52.150;4.508;2022-07-19T10:32:31;101382.91;;;32.10;28.93
72465;BME280;60471;52.150;4.508;2022-07-19T10:40:49;101381.22;;;32.50;30.34
72465;BME280;60471;52.150;4.508;2022-07-19T10:43:23;101375.34;;;32.53;29.56
72465;BME280;60471;52.150;4.508;2022-07-19T10:48:57;101368.09;;;32.80;28.96
72465;BME280;60471;52.150;4.508;2022-07-19T10:51:28;101364.06;;;32.76;28.81
72465;BME280;60471;52.150;4.508;2022-07-19T10:54:08;101357.84;;;32.89;29.67
72465;BME280;60471;52.150;4.508;2022-07-19T10:56:55;101365.81;;;32.97;29.27
72465;BME280;60471;52.150;4.508;2022-07-19T10:59:31;101353.63;;;33.00;29.76
72465;BME280;60471;52.150;4.508;2022-07-19T11:01:58;101347.94;;;33.08;28.45
72465;BME280;60471;52.150;4.508;2022-07-19T11:04:35;101353.00;;;33.17;28.99
72465;BME280;60471;52.150;4.508;2022-07-19T11:07:13;101339.13;;;33.19;28.74
72465;BME280;60471;52.150;4.508;2022-07-19T11:09:48;101346.69;;;33.30;29.00
72465;BME280;60471;52.150;4.508;2022-07-19T11:12:34;101342.50;;;33.28;27.82
72465;BME280;60471;52.150;4.508;2022-07-19T11:15:08;101345.00;;;33.29;28.47
72465;BME280;60471;52.150;4.508;2022-07-19T11:17:35;101345.03;;;33.42;28.72
72465;BME280;60471;52.150;4.508;2022-07-19T11:20:08;101326.47;;;33.64;28.17
72465;BME280;60471;52.150;4.508;2022-07-19T11:22:42;101337.47;;;33.44;26.90
72465;BME280;60471;52.150;4.508;2022-07-19T11:25:12;101343.56;;;33.47;27.16
72465;BME280;60471;52.150;4.508;2022-07-19T11:27:44;101330.28;;;33.63;27.61
72465;BME280;60471;52.150;4.508;2022-07-19T11:30:12;101333.84;;;33.77;27.35
72465;BME280;60471;52.150;4.508;2022-07-19T11:32:40;101332.09;;;34.09;27.23
72465;BME280;60471;52.150;4.508;2022-07-19T11:35:11;101336.69;;;34.22;26.80
72465;BME280;60471;52.150;4.508;2022-07-19T11:37:39;101331.41;;;34.20;27.01
72465;BME280;60471;52.150;4.508;2022-07-19T11:40:08;101326.28;;;34.37;27.19
72465;BME280;60471;52.150;4.508;2022-07-19T11:42:39;101333.88;;;34.35;27.17
72465;BME280;60471;52.150;4.508;2022-07-19T11:47:50;101321.88;;;34.43;28.38
72465;BME280;60471;52.150;4.508;2022-07-19T11:50:20;101320.41;;;34.34;27.51
72465;BME280;60471;52.150;4.508;2022-07-19T11:52:56;101314.50;;;34.30;27.44
72465;BME280;60471;52.150;4.508;2022-07-19T11:55:34;101315.94;;;34.46;27.34
72465;BME280;60471;52.150;4.508;2022-07-19T11:58:07;101310.84;;;34.49;27.05
72465;BME280;60471;52.150;4.508;2022-07-19T12:00:36;101306.53;;;34.67;26.47
72465;BME280;60471;52.150;4.508;2022-07-19T12:03:05;101311.94;;;34.73;25.86
72465;BME280;60471;52.150;4.508;2022-07-19T12:05:38;101299.72;;;34.76;26.90
72465;BME280;60471;52.150;4.508;2022-07-19T12:08:07;101290.47;;;34.70;26.22
72465;BME280;60471;52.150;4.508;2022-07-19T12:13:03;101285.59;;;35.04;26.73
72465;BME280;60471;52.150;4.508;2022-07-19T12:15:53;101285.69;;;35.15;26.07
72465;BME280;60471;52.150;4.508;2022-07-19T12:18:41;101291.38;;;34.96;26.43
72465;BME280;60471;52.150;4.508;2022-07-19T12:24:20;101291.00;;;35.35;25.95
72465;BME280;60471;52.150;4.508;2022-07-19T12:34:48;101269.34;;;35.52;24.34
72465;BME280;60471;52.150;4.508;2022-07-19T12:45:09;101259.56;;;36.11;23.82
72465;BME280;60471;52.150;4.508;2022-07-19T12:47:41;101262.47;;;35.80;23.53
72465;BME280;60471;52.150;4.508;2022-07-19T12:50:09;101255.56;;;35.95;24.11
72465;BME280;60471;52.150;4.508;2022-07-19T12:52:48;101245.53;;;36.01;24.14
72465;BME280;60471;52.150;4.508;2022-07-19T12:55:15;101248.19;;;35.71;23.65
72465;BME280;60471;52.150;4.508;2022-07-19T12:57:42;101248.97;;;35.60;24.24
72465;BME280;60471;52.150;4.508;2022-07-19T13:00:08;101242.72;;;35.89;24.35
72465;BME280;60471;52.150;4.508;2022-07-19T13:02:35;101239.97;;;36.08;24.26
72465;BME280;60471;52.150;4.508;2022-07-19T13:05:01;101232.09;;;36.11;24.09
72465;BME280;60471;52.150;4.508;2022-07-19T13:07:28;101241.91;;;35.89;23.02
72465;BME280;60471;52.150;4.508;2022-07-19T13:09:54;101241.47;;;36.04;23.74
72465;BME280;60471;52.150;4.508;2022-07-19T13:12:20;101235.34;;;36.20;23.86
72465;BME280;60471;52.150;4.508;2022-07-19T13:14:46;101234.03;;;36.22;23.54
72465;BME280;60471;52.150;4.508;2022-07-19T13:17:13;101231.28;;;36.22;23.79
72465;BME280;60471;52.150;4.508;2022-07-19T13:19:39;101229.84;;;36.38;23.45
72465;BME280;60471;52.150;4.508;2022-07-19T13:22:06;101225.19;;;36.39;22.97
72465;BME280;60471;52.150;4.508;2022-07-19T13:24:33;101226.50;;;36.48;23.34
72465;BME280;60471;52.150;4.508;2022-07-19T13:26:59;101224.25;;;36.56;22.69
72465;BME280;60471;52.150;4.508;2022-07-19T13:29:26;101229.63;;;36.51;22.73
72465;BME280;60471;52.150;4.508;2022-07-19T13:31:52;101213.25;;;36.15;22.71
72465;BME280;60471;52.150;4.508;2022-07-19T13:34:18;101209.56;;;36.33;22.82
72465;BME280;60471;52.150;4.508;2022-07-19T13:36:44;101209.31;;;36.64;23.03
72465;BME280;60471;52.150;4.508;2022-07-19T13:39:11;101199.72;;;36.55;22.24
72465;BME280;60471;52.150;4.508;2022-07-19T13:41:38;101196.00;;;36.38;22.67
72465;BME280;60471;52.150;4.508;2022-07-19T13:44:05;101200.13;;;36.58;22.60